CYOWCYND

Guest
Details From CYOW - Ottawa Macdonald Cartier Intl
To CYND - GATINEAU
Flight Number -
Tags generated
Created
Modified
Stats Distance 13 nm / 24 km
Max Altitude 0 ft / 0 m
Waypoints 2
Social Downloads 1
Likes 0
Share VATSIM

Download

Looking for another format? Having issues loading an existing format? Contact us
Advertisement - Login to hide

Notes

Basic altitude profile: - Ascent Rate: 1500ft/min - Ascent Speed: 100kts - Cruise Altitude: 4000ft - Cruise Speed: 120kts - Descent Rate: 1500ft/min - Descent Speed: 100kts Options: - Use NATs: yes - Use PACOTS: yes - Use low airways: yes - Use high airways: yes

Route

CYOW CYND

ID Type Via Altitude Latitude Longitude Leg Dist Tot Dist Heading (true) Name
O CYOW APT - 0 ft / 0 m 45.32282˚ -75.67144˚ - 0 nm - Ottawa Macdonald Cartier Intl
O CYND APT - 0 ft / 0 m 45.52169˚ -75.56359˚ 12 nm 12 nm 21° / 21° GATINEAU

Altitude Profile

Advertisement - Login to hide

CYOW

Details ICAO CYOW (YOW)
Name Ottawa Macdonald Cartier Intl
Region Canada
Timezone America/Toronto (UTC-5.0)
Stats Elevation 374 ft / 114 m (AMSL)
Location 45.322817° -75.671438°
Runways 3
Magnetic Variation 13.247° W

METAR

CYOW 110900Z 32008KT 15SM FEW035 SCT180 M13/M17 A2995 RMK SC1AC4 SC TR SLP150

Decode

TAF

TAF TAF CYOW 110841Z 1109/1206 32010KT P6SM SCT030 FM111700 28008KT P6SM SCT200 FM120000 06008KT P6SM BKN120 FM120400 07010KT P6SM -SN OVC080 RMK NXT FCST BY 111200Z

Decode

Departure Runways

ID Width Length Bearing (true) Bearing (mag) Surface Threshold Offset Overrun Length
04 75 ft / 23 m 3,304 ft / 1,007 m 25.50° 38.75° Asphalt 0 ft / 0 m 0 ft / 0 m
07 200 ft / 61 m 8,011 ft / 2,442 m 57.16° 70.41° Asphalt 0 ft / 0 m 150 ft / 46 m
14 200 ft / 61 m 9,978 ft / 3,041 m 126.44° 139.69° Asphalt 0 ft / 0 m 150 ft / 46 m
22 75 ft / 23 m 3,304 ft / 1,007 m 205.50° 218.75° Asphalt 0 ft / 0 m 0 ft / 0 m
25 200 ft / 61 m 8,011 ft / 2,442 m 237.18° 250.43° Asphalt 0 ft / 0 m 155 ft / 47 m
32 200 ft / 61 m 9,978 ft / 3,041 m 306.46° 319.71° Asphalt 0 ft / 0 m 150 ft / 46 m

CYND

Details ICAO CYND (YND)
Name GATINEAU
Region Canada
Timezone America/Montreal (UTC-5.0)
Stats Elevation 211 ft / 64 m (AMSL)
Location 45.521693° -75.563587°
Runways 1
Magnetic Variation 13.369° W

METAR

Not found

TAF

TAF CYND 102338Z 1100/1102 VRB03KT 6SM -SN OVC030 TEMPO 1100/1102 11/2SM -SHSN OVC020 BECMG 1100/1102 31008KT RMK NXT FCST WILL BE ISSUED AT 111345Z

Decode

Destination Runways

ID Width Length Bearing (true) Bearing (mag) Surface Threshold Offset Overrun Length
09 150 ft / 46 m 5,983 ft / 1,824 m 75.36° 88.73° Asphalt 0 ft / 0 m 200 ft / 61 m
27 150 ft / 46 m 5,983 ft / 1,824 m 255.37° 268.74° Asphalt 0 ft / 0 m 200 ft / 61 m

Popular Alternatives